createdAt,value
2019-06-10T00:02:10.900Z,10.85
2019-06-10T00:04:41.507Z,10.88
2019-06-10T00:07:11.838Z,13.20
2019-06-10T00:09:40.754Z,14.78
2019-06-10T00:12:12.311Z,13.50
2019-06-10T00:14:41.789Z,14.35
2019-06-10T00:17:11.009Z,12.58
2019-06-10T00:19:40.904Z,11.05
2019-06-10T00:22:11.619Z,16.73
2019-06-10T00:24:41.571Z,15.23
2019-06-10T00:27:12.113Z,13.88
2019-06-10T00:29:41.010Z,11.45
2019-06-10T00:32:12.710Z,12.15
2019-06-10T00:34:41.914Z,13.25
2019-06-10T00:37:14.614Z,15.60
2019-06-10T00:39:40.874Z,14.98
2019-06-10T00:42:11.766Z,12.07
2019-06-10T00:44:41.674Z,12.50
2019-06-10T00:47:14.391Z,14.55
2019-06-10T00:49:40.915Z,15.18
2019-06-10T00:52:12.180Z,15.95
2019-06-10T00:54:41.769Z,15.38
2019-06-10T00:57:12.343Z,16.12
2019-06-10T00:59:41.367Z,14.78
2019-06-10T01:02:12.498Z,10.58
2019-06-10T01:04:40.717Z,12.85
2019-06-10T01:07:30.979Z,14.57
2019-06-10T01:10:00.984Z,13.28
2019-06-10T01:12:31.500Z,10.05
2019-06-10T01:15:00.917Z,16.80
2019-06-10T01:17:31.131Z,14.00
2019-06-10T01:20:01.546Z,10.40
2019-06-10T01:22:31.589Z,10.70
2019-06-10T01:25:01.721Z,12.60
2019-06-10T01:27:31.533Z,13.13
2019-06-10T01:30:02.997Z,17.30
2019-06-10T01:32:31.246Z,13.58
2019-06-10T01:35:01.694Z,16.27
2019-06-10T01:37:32.058Z,14.83
2019-06-10T01:40:00.866Z,16.50
2019-06-10T01:42:30.649Z,11.20
2019-06-10T01:45:01.179Z,14.85
2019-06-10T01:47:31.078Z,13.25
2019-06-10T01:50:00.697Z,11.60
2019-06-10T01:52:48.787Z,12.45
2019-06-10T01:55:18.246Z,9.53
2019-06-10T01:57:54.381Z,15.18
2019-06-10T02:00:26.115Z,13.18
2019-06-10T02:02:54.801Z,21.30
2019-06-10T02:05:23.286Z,8.90
2019-06-10T02:07:51.777Z,14.35
2019-06-10T02:10:23.045Z,11.45
2019-06-10T02:12:52.026Z,12.28
2019-06-10T02:15:22.566Z,9.50
2019-06-10T02:17:51.037Z,8.48
2019-06-10T02:20:23.509Z,8.00
2019-06-10T02:22:51.565Z,10.03
2019-06-10T02:25:22.749Z,10.80
2019-06-10T02:27:51.273Z,9.63
2019-06-10T02:30:36.210Z,11.95
2019-06-10T02:32:52.357Z,11.30
2019-06-10T02:35:30.921Z,13.00
2019-06-10T02:37:53.930Z,12.88
2019-06-10T02:40:31.866Z,8.10
2019-06-10T02:42:56.482Z,12.20
2019-06-10T02:45:36.381Z,9.38
2019-06-10T02:47:59.120Z,12.75
2019-06-10T02:50:53.518Z,8.23
2019-06-10T02:53:22.780Z,8.58
2019-06-10T02:55:53.808Z,15.48
2019-06-10T02:58:30.505Z,16.57
2019-06-10T03:00:54.663Z,11.88
2019-06-10T03:03:33.254Z,11.40
2019-06-10T03:05:53.841Z,11.12
2019-06-10T03:08:28.661Z,10.65
2019-06-10T03:10:55.678Z,11.90
2019-06-10T03:13:25.741Z,9.05
2019-06-10T03:15:59.493Z,11.68
2019-06-10T03:18:28.197Z,11.22
2019-06-10T03:20:56.968Z,9.70
2019-06-10T03:23:27.847Z,8.55
2019-06-10T03:26:03.673Z,10.93
2019-06-10T03:28:32.087Z,10.93
2019-06-10T03:31:04.951Z,9.13
2019-06-10T03:33:40.576Z,7.47
2019-06-10T03:36:03.288Z,12.35
2019-06-10T03:38:32.469Z,11.43
2019-06-10T03:41:03.255Z,11.43
2019-06-10T03:43:32.998Z,11.12
2019-06-10T03:46:02.990Z,12.07
2019-06-10T03:48:32.897Z,10.13
2019-06-10T03:51:03.430Z,11.05
2019-06-10T03:53:33.766Z,10.58
2019-06-10T03:56:14.325Z,14.30
2019-06-10T03:58:43.218Z,12.18
2019-06-10T04:01:13.745Z,9.70
2019-06-10T04:03:42.898Z,12.75
2019-06-10T04:06:12.912Z,8.38
2019-06-10T04:08:44.335Z,11.55
2019-06-10T04:11:12.833Z,13.10
2019-06-10T04:13:43.122Z,7.60
2019-06-10T04:16:13.105Z,10.60
2019-06-10T04:18:42.960Z,13.60
2019-06-10T04:21:12.836Z,8.03
2019-06-10T04:23:42.361Z,8.45
2019-06-10T04:26:12.860Z,12.80
2019-06-10T04:28:42.947Z,10.82
2019-06-10T04:31:13.131Z,11.10
2019-06-10T04:33:42.478Z,11.65
2019-06-10T04:36:13.243Z,10.58
2019-06-10T04:38:43.143Z,8.80
2019-06-10T04:41:12.852Z,9.90
2019-06-10T04:43:43.482Z,9.48
2019-06-10T04:46:12.626Z,8.40
2019-06-10T04:48:42.753Z,11.30
2019-06-10T04:51:12.987Z,10.28
2019-06-10T04:53:43.491Z,9.23
2019-06-10T04:56:12.350Z,9.38
2019-06-10T04:58:43.215Z,14.60
2019-06-10T05:01:15.229Z,11.70
2019-06-10T05:03:43.894Z,12.33
2019-06-10T05:06:12.591Z,6.62
2019-06-10T05:08:42.687Z,10.03
2019-06-10T05:11:12.773Z,10.82
2019-06-10T05:13:43.017Z,8.58
2019-06-10T05:16:12.560Z,9.00
2019-06-10T05:18:42.440Z,7.97
2019-06-10T05:21:13.063Z,9.48
2019-06-10T05:23:43.049Z,8.53
2019-06-10T05:26:13.467Z,9.30
2019-06-10T05:28:43.201Z,11.33
2019-06-10T05:31:13.485Z,8.70
2019-06-10T05:33:42.624Z,11.45
2019-06-10T05:36:13.090Z,8.58
2019-06-10T05:38:43.502Z,8.38
2019-06-10T05:41:13.518Z,7.95
2019-06-10T05:43:43.080Z,11.55
2019-06-10T05:46:13.691Z,8.63
2019-06-10T05:48:43.811Z,8.23
2019-06-10T05:51:12.563Z,8.33
2019-06-10T05:53:42.670Z,6.55
2019-06-10T05:56:12.792Z,5.92
2019-06-10T05:58:43.586Z,7.83
2019-06-10T06:01:13.274Z,7.22
2019-06-10T06:03:43.947Z,12.68
2019-06-10T06:06:12.816Z,7.05
2019-06-10T06:08:42.849Z,5.70
2019-06-10T06:11:12.662Z,5.60
2019-06-10T06:13:43.215Z,8.28
2019-06-10T06:16:12.632Z,7.85
2019-06-10T06:18:42.199Z,6.67
2019-06-10T06:21:22.454Z,8.10
2019-06-10T06:23:43.418Z,5.53
2019-06-10T06:26:16.513Z,5.17
2019-06-10T06:28:42.993Z,5.47
2019-06-10T06:31:12.644Z,9.98
2019-06-10T06:33:43.311Z,5.87
2019-06-10T06:36:12.573Z,8.70
2019-06-10T06:38:43.616Z,4.92
2019-06-10T06:41:13.696Z,5.62
2019-06-10T06:43:45.277Z,6.03
2019-06-10T06:46:12.840Z,8.75
2019-06-10T06:48:43.815Z,7.83
2019-06-10T06:51:13.163Z,6.60
2019-06-10T06:53:48.380Z,5.47
2019-06-10T06:56:12.786Z,6.87
2019-06-10T06:58:43.538Z,7.62
2019-06-10T07:01:14.711Z,8.08
2019-06-10T07:03:45.153Z,4.95
2019-06-10T07:06:14.721Z,4.87
2019-06-10T07:09:00.352Z,9.00
2019-06-10T07:11:18.856Z,7.17
2019-06-10T07:13:47.491Z,4.75
2019-06-10T07:16:16.071Z,6.72
2019-06-10T07:18:49.956Z,8.00
2019-06-10T07:21:14.723Z,3.92
2019-06-10T07:23:46.867Z,5.75
2019-06-10T07:26:13.471Z,7.03
2019-06-10T07:28:46.745Z,6.45
2019-06-10T07:31:23.651Z,6.33
2019-06-10T07:33:46.874Z,9.03
2019-06-10T07:36:16.530Z,6.45
2019-06-10T07:38:48.854Z,5.53
2019-06-10T07:41:15.179Z,7.87
2019-06-10T07:43:49.387Z,3.10
2019-06-10T07:46:14.696Z,5.40
2019-06-10T07:48:47.677Z,5.15
2019-06-10T07:51:13.403Z,4.72
2019-06-10T07:53:46.629Z,4.90
2019-06-10T07:56:13.294Z,6.45
2019-06-10T07:58:47.026Z,3.92
2019-06-10T08:01:13.143Z,7.22
2019-06-10T08:03:46.009Z,4.83
2019-06-10T08:06:12.802Z,8.05
2019-06-10T08:08:43.942Z,4.92
2019-06-10T08:11:13.565Z,6.97
2019-06-10T08:13:45.882Z,5.25
2019-06-10T08:16:13.219Z,8.55
2019-06-10T08:19:13.994Z,6.53
2019-06-10T08:21:15.019Z,6.33
2019-06-10T08:23:46.552Z,5.92
2019-06-10T08:26:13.652Z,5.72
2019-06-10T08:28:45.095Z,4.72
2019-06-10T08:31:13.674Z,6.30
2019-06-10T08:33:45.591Z,7.95
2019-06-10T08:36:13.554Z,6.22
2019-06-10T08:38:44.959Z,6.95
2019-06-10T08:41:13.821Z,7.20
2019-06-10T08:43:45.236Z,5.58
2019-06-10T08:46:13.204Z,5.80
2019-06-10T08:48:45.809Z,8.05
2019-06-10T08:51:12.601Z,7.25
2019-06-10T08:53:43.871Z,7.12
2019-06-10T08:56:13.157Z,8.23
2019-06-10T08:58:45.698Z,6.35
2019-06-10T09:01:13.262Z,13.98
2019-06-10T09:03:46.446Z,9.45
2019-06-10T09:06:13.349Z,9.00
2019-06-10T09:08:45.735Z,7.83
2019-06-10T09:11:13.140Z,8.93
2019-06-10T09:13:46.372Z,6.83
2019-06-10T09:16:18.570Z,8.55
2019-06-10T09:18:47.343Z,6.55
2019-06-10T09:21:13.022Z,5.70
2019-06-10T09:23:47.310Z,6.35
2019-06-10T09:26:12.641Z,7.67
2019-06-10T09:28:45.012Z,6.17
2019-06-10T09:31:14.075Z,8.40
2019-06-10T09:33:46.644Z,7.15
2019-06-10T09:36:12.519Z,6.72
2019-06-10T09:38:45.358Z,6.67
2019-06-10T09:41:14.247Z,9.95
2019-06-10T09:43:48.740Z,5.22
2019-06-10T09:46:17.254Z,7.92
2019-06-10T09:48:49.756Z,7.17
2019-06-10T09:51:19.965Z,9.98
2019-06-10T09:53:56.307Z,8.60
2019-06-10T09:56:23.450Z,8.13
2019-06-10T09:58:55.091Z,7.78
2019-06-10T10:01:24.516Z,6.22
2019-06-10T10:03:59.345Z,9.63
2019-06-10T10:06:23.738Z,6.17
2019-06-10T10:08:57.838Z,7.25
2019-06-10T10:11:23.779Z,11.00
2019-06-10T10:13:56.087Z,6.58
2019-06-10T10:16:24.655Z,5.00
2019-06-10T10:19:00.233Z,10.75
2019-06-10T10:21:23.378Z,9.25
2019-06-10T10:24:06.554Z,5.45
2019-06-10T10:26:23.525Z,5.00
2019-06-10T10:28:56.838Z,5.53
2019-06-10T10:31:23.837Z,8.43
2019-06-10T10:33:52.705Z,7.70
2019-06-10T10:36:22.637Z,5.17
2019-06-10T10:38:52.327Z,6.60
2019-06-10T10:41:23.446Z,9.13
2019-06-10T10:43:56.577Z,5.90
2019-06-10T10:46:23.168Z,6.72
2019-06-10T10:48:55.171Z,9.15
2019-06-10T10:51:23.121Z,10.20
2019-06-10T10:54:19.073Z,6.87
2019-06-10T10:56:25.079Z,9.75
2019-06-10T10:58:56.376Z,8.38
2019-06-10T11:01:23.874Z,7.72
2019-06-10T11:03:56.933Z,9.00
2019-06-10T11:06:24.053Z,7.30
2019-06-10T11:08:55.833Z,6.45
2019-06-10T11:11:24.413Z,6.12
2019-06-10T11:13:56.805Z,8.45
2019-06-10T11:16:23.826Z,6.83
2019-06-10T11:18:56.186Z,7.75
2019-06-10T11:21:22.897Z,9.80
2019-06-10T11:23:53.782Z,6.33
2019-06-10T11:26:24.776Z,6.55
2019-06-10T11:28:54.470Z,7.70
2019-06-10T11:31:22.861Z,6.17
2019-06-10T11:33:56.999Z,6.28
2019-06-10T11:36:22.907Z,8.38
2019-06-10T11:38:55.153Z,5.53
2019-06-10T11:41:23.646Z,9.55
2019-06-10T11:43:55.046Z,4.85
2019-06-10T11:46:23.636Z,9.15
2019-06-10T11:48:55.652Z,8.85
2019-06-10T11:51:23.481Z,10.63
2019-06-10T11:53:54.594Z,17.32
2019-06-10T11:56:22.886Z,10.98
2019-06-10T11:58:55.118Z,11.60
2019-06-10T12:01:22.861Z,15.88
2019-06-10T12:03:55.872Z,9.10
2019-06-10T12:06:24.539Z,11.20
2019-06-10T12:08:57.343Z,8.33
2019-06-10T12:11:24.127Z,18.87
2019-06-10T12:13:57.772Z,15.03
2019-06-10T12:18:57.045Z,13.18
2019-06-10T12:21:24.967Z,13.70
2019-06-10T12:23:57.685Z,19.32
2019-06-10T12:26:25.289Z,13.40
2019-06-10T12:28:58.757Z,8.53
2019-06-10T12:31:25.352Z,10.78
2019-06-10T12:33:57.123Z,9.08
2019-06-10T12:36:24.033Z,12.93
2019-06-10T12:38:56.373Z,10.18
2019-06-10T12:41:23.408Z,8.05
2019-06-10T12:43:53.074Z,8.83
2019-06-10T12:46:23.172Z,7.60
2019-06-10T12:48:53.990Z,7.65
2019-06-10T12:51:22.851Z,8.00
2019-06-10T12:53:51.612Z,10.65
2019-06-10T12:56:22.549Z,10.48
2019-06-10T12:58:54.004Z,5.67
2019-06-10T13:01:20.603Z,6.08
2019-06-10T13:03:53.616Z,7.83
2019-06-10T13:06:23.491Z,5.55
2019-06-10T13:08:53.421Z,5.15
2019-06-10T13:11:23.421Z,5.72
2019-06-10T13:13:54.047Z,5.17
2019-06-10T13:16:23.034Z,7.55
2019-06-10T13:18:53.867Z,8.28
2019-06-10T13:21:22.895Z,10.25
2019-06-10T13:23:54.170Z,7.30
2019-06-10T13:26:23.676Z,6.92
2019-06-10T13:28:52.630Z,10.25
2019-06-10T13:31:23.676Z,6.40
2019-06-10T13:33:52.954Z,9.45
2019-06-10T13:36:25.876Z,8.75
2019-06-10T13:38:53.238Z,10.80
2019-06-10T13:41:22.743Z,7.35
2019-06-10T13:43:52.801Z,5.83
2019-06-10T13:46:24.369Z,6.78
2019-06-10T13:48:52.332Z,10.50
2019-06-10T13:51:20.992Z,7.97
2019-06-10T13:53:49.439Z,7.40
2019-06-10T13:56:39.876Z,5.50
2019-06-10T13:58:48.085Z,8.78
2019-06-10T14:01:21.980Z,9.93
2019-06-10T14:03:48.390Z,6.62
2019-06-10T14:06:33.062Z,7.87
2019-06-10T14:08:47.249Z,9.85
2019-06-10T14:11:15.730Z,5.50
2019-06-10T14:13:44.333Z,6.78
2019-06-10T14:16:14.839Z,12.65
2019-06-10T14:18:43.105Z,8.00
2019-06-10T14:21:17.627Z,9.45
2019-06-10T14:23:42.993Z,7.03
2019-06-10T14:26:16.677Z,7.42
2019-06-10T14:28:44.205Z,5.80
2019-06-10T14:31:33.702Z,7.65
2019-06-10T14:33:42.889Z,9.10
2019-06-10T14:36:15.142Z,9.60
2019-06-10T14:38:43.004Z,6.87
2019-06-10T14:41:12.322Z,8.35
2019-06-10T14:43:42.393Z,15.45
2019-06-10T14:46:14.376Z,6.58
2019-06-10T14:48:42.684Z,14.25
2019-06-10T14:51:16.976Z,12.03
2019-06-10T14:53:43.532Z,14.23
2019-06-10T14:56:14.850Z,7.05
2019-06-10T14:58:42.562Z,8.33
2019-06-10T15:01:19.721Z,7.35
2019-06-10T15:03:43.087Z,6.42
2019-06-10T15:06:11.669Z,8.25
2019-06-10T15:08:42.702Z,14.05
2019-06-10T15:11:11.678Z,13.72
2019-06-10T15:13:43.307Z,9.13
2019-06-10T15:16:10.663Z,8.18
2019-06-10T15:18:39.276Z,7.83
2019-06-10T15:21:08.738Z,8.43
2019-06-10T15:23:37.316Z,11.75
2019-06-10T15:26:05.846Z,11.80
2019-06-10T15:28:34.391Z,10.78
2019-06-10T15:31:03.176Z,9.93
2019-06-10T15:33:32.620Z,11.33
2019-06-10T15:36:02.290Z,11.28
2019-06-10T15:38:32.779Z,7.65
2019-06-10T15:41:01.432Z,10.90
2019-06-10T15:43:33.094Z,10.85
2019-06-10T15:46:03.306Z,11.88
2019-06-10T15:48:32.090Z,12.63
2019-06-10T15:51:02.868Z,10.68
2019-06-10T15:53:32.834Z,10.72
2019-06-10T15:56:27.040Z,15.15
2019-06-10T15:58:32.288Z,10.20
2019-06-10T16:01:02.774Z,12.03
2019-06-10T16:03:32.931Z,15.53
2019-06-10T16:06:03.186Z,14.87
2019-06-10T16:08:32.471Z,10.68
2019-06-10T16:11:03.078Z,10.18
2019-06-10T16:13:32.311Z,11.10
2019-06-10T16:16:03.628Z,7.30
2019-06-10T16:18:32.901Z,6.08
2019-06-10T16:21:04.259Z,6.47
2019-06-10T16:23:33.922Z,7.08
2019-06-10T16:26:02.787Z,9.80
2019-06-10T16:28:32.903Z,6.28
2019-06-10T16:31:02.714Z,9.55
2019-06-10T16:33:33.561Z,6.00
2019-06-10T16:36:14.886Z,6.55
2019-06-10T16:38:44.830Z,7.03
2019-06-10T16:41:13.378Z,8.23
2019-06-10T16:43:42.837Z,13.95
2019-06-10T16:46:11.794Z,6.65
2019-06-10T16:48:40.378Z,7.90
2019-06-10T16:51:13.215Z,5.45
2019-06-10T16:53:42.665Z,7.25
2019-06-10T16:56:12.159Z,6.17
2019-06-10T16:58:43.117Z,6.72
2019-06-10T17:01:12.365Z,6.67
2019-06-10T17:03:42.706Z,6.92
2019-06-10T17:06:13.120Z,8.35
2019-06-10T17:08:42.617Z,9.08
2019-06-10T17:11:12.450Z,8.40
2019-06-10T17:13:42.288Z,8.15
2019-06-10T17:16:12.679Z,8.98
2019-06-10T17:18:41.200Z,7.58
2019-06-10T17:21:09.685Z,9.68
2019-06-10T17:23:39.541Z,10.72
2019-06-10T17:26:08.279Z,10.23
2019-06-10T17:28:37.138Z,9.43
2019-06-10T17:31:06.417Z,10.15
2019-06-10T17:33:35.983Z,11.35
2019-06-10T17:36:04.913Z,10.00
2019-06-10T17:38:34.170Z,11.60
2019-06-10T17:41:03.058Z,10.13
2019-06-10T17:43:34.055Z,12.03
2019-06-10T17:46:03.300Z,11.50
2019-06-10T17:48:33.698Z,12.93
2019-06-10T17:51:02.559Z,11.78
2019-06-10T17:53:34.757Z,12.10
2019-06-10T17:56:03.347Z,9.93
2019-06-10T17:58:43.342Z,9.35
2019-06-10T18:01:02.249Z,11.40
2019-06-10T18:03:31.358Z,11.20
2019-06-10T18:06:02.581Z,10.65
2019-06-10T18:08:32.360Z,9.83
2019-06-10T18:11:03.045Z,9.65
2019-06-10T18:13:32.666Z,10.95
2019-06-10T18:16:02.725Z,13.72
2019-06-10T18:18:33.802Z,11.53
2019-06-10T18:21:03.467Z,11.45
2019-06-10T18:23:32.939Z,11.00
2019-06-10T18:26:03.219Z,11.75
2019-06-10T18:28:34.582Z,9.60
2019-06-10T18:31:08.344Z,9.98
2019-06-10T18:33:38.038Z,10.53
2019-06-10T18:36:06.757Z,14.33
2019-06-10T18:38:37.128Z,12.65
2019-06-10T18:41:05.516Z,12.88
2019-06-10T18:43:35.363Z,10.18
2019-06-10T18:46:04.315Z,11.63
2019-06-10T18:48:35.989Z,11.12
2019-06-10T18:51:03.002Z,12.60
2019-06-10T18:53:33.535Z,14.15
2019-06-10T18:56:01.831Z,12.90
2019-06-10T18:58:32.998Z,10.68
2019-06-10T19:01:07.224Z,11.40
2019-06-10T19:03:34.698Z,11.97
2019-06-10T19:06:02.262Z,13.50
2019-06-10T19:08:33.982Z,13.55
2019-06-10T19:11:02.450Z,15.63
2019-06-10T19:13:33.930Z,16.12
2019-06-10T19:16:02.337Z,14.37
2019-06-10T19:18:31.900Z,14.07
2019-06-10T19:21:03.568Z,14.65
2019-06-10T19:23:33.438Z,14.70
2019-06-10T19:26:03.037Z,18.25
2019-06-10T19:28:33.855Z,14.50
2019-06-10T19:31:02.369Z,15.90
2019-06-10T19:33:34.101Z,14.15
2019-06-10T19:36:02.217Z,16.55
2019-06-10T19:38:32.413Z,18.95
2019-06-10T19:41:02.756Z,17.77
2019-06-10T19:43:36.508Z,18.50
2019-06-10T19:46:07.532Z,18.02
2019-06-10T19:48:38.432Z,19.15
2019-06-10T19:51:08.130Z,22.77
2019-06-10T19:53:37.283Z,16.27
2019-06-10T19:56:07.475Z,16.82
2019-06-10T19:58:36.229Z,15.00
2019-06-10T20:01:04.987Z,15.53
2019-06-10T20:03:34.366Z,17.05
2019-06-10T20:06:04.976Z,21.17
2019-06-10T20:08:34.635Z,18.00
2019-06-10T20:11:06.004Z,17.05
2019-06-10T20:13:36.459Z,20.10
2019-06-10T20:16:05.313Z,19.50
2019-06-10T20:18:33.991Z,24.77
2019-06-10T20:21:02.875Z,20.12
2019-06-10T20:23:33.282Z,18.10
2019-06-10T20:26:03.549Z,27.50
2019-06-10T20:28:32.273Z,20.85
2019-06-10T20:31:00.813Z,26.50
2019-06-10T20:33:36.182Z,22.98
2019-06-10T20:36:03.335Z,22.15
2019-06-10T20:38:32.585Z,21.27
2019-06-10T20:41:02.654Z,21.05
2019-06-10T20:43:32.860Z,21.23
2019-06-10T20:46:02.936Z,21.20
2019-06-10T20:48:33.330Z,19.60
2019-06-10T20:51:02.960Z,21.50
2019-06-10T20:53:33.723Z,19.25
2019-06-10T20:56:03.804Z,19.95
2019-06-10T20:58:33.101Z,16.17
2019-06-10T21:01:04.602Z,16.70
2019-06-10T21:03:32.482Z,18.42
2019-06-10T21:06:03.385Z,17.62
2019-06-10T21:08:33.988Z,17.52
2019-06-10T21:11:03.102Z,17.92
2019-06-10T21:13:33.013Z,16.20
2019-06-10T21:16:03.555Z,19.42
2019-06-10T21:18:32.902Z,11.60
2019-06-10T21:21:01.854Z,10.78
2019-06-10T21:23:30.344Z,12.30
2019-06-10T21:25:58.998Z,10.20
2019-06-10T21:28:27.527Z,10.85
2019-06-10T21:30:58.800Z,9.73
2019-06-10T21:33:26.275Z,11.00
2019-06-10T21:35:55.303Z,8.60
2019-06-10T21:38:23.782Z,8.65
2019-06-10T21:40:53.722Z,8.63
2019-06-10T21:43:22.508Z,9.25
2019-06-10T21:45:57.462Z,8.57
2019-06-10T21:48:22.979Z,10.03
2019-06-10T21:50:55.844Z,10.72
2019-06-10T21:53:22.408Z,9.85
2019-06-10T21:56:12.463Z,10.77
2019-06-10T21:58:42.326Z,11.45
2019-06-10T22:01:14.186Z,10.15
2019-06-10T22:03:43.479Z,10.88
2019-06-10T22:06:13.845Z,11.35
2019-06-10T22:08:42.799Z,12.50
2019-06-10T22:11:13.824Z,10.80
2019-06-10T22:13:43.964Z,10.93
2019-06-10T22:16:12.707Z,11.75
2019-06-10T22:18:41.172Z,12.65
2019-06-10T22:21:09.638Z,11.05
2019-06-10T22:23:38.188Z,13.32
2019-06-10T22:26:06.801Z,12.10
2019-06-10T22:28:35.283Z,15.83
2019-06-10T22:31:18.129Z,12.63
2019-06-10T22:33:34.718Z,13.70
2019-06-10T22:36:03.356Z,12.60
2019-06-10T22:38:32.833Z,12.90
2019-06-10T22:41:03.704Z,13.80
2019-06-10T22:43:32.201Z,14.63
2019-06-10T22:46:00.843Z,14.00
2019-06-10T22:48:29.414Z,15.08
2019-06-10T22:50:57.910Z,12.68
2019-06-10T22:53:27.776Z,13.28
2019-06-10T22:55:57.839Z,14.15
2019-06-10T22:58:26.445Z,14.47
2019-06-10T23:00:57.809Z,14.13
2019-06-10T23:03:26.689Z,13.50
2019-06-10T23:05:56.525Z,13.15
2019-06-10T23:08:44.644Z,14.70
2019-06-10T23:11:13.285Z,13.25
2019-06-10T23:13:42.412Z,12.85
2019-06-10T23:16:13.026Z,12.70
2019-06-10T23:18:42.487Z,13.08
2019-06-10T23:21:13.313Z,11.80
2019-06-10T23:23:43.112Z,13.75
2019-06-10T23:26:13.054Z,14.43
2019-06-10T23:28:55.624Z,14.47
2019-06-10T23:31:23.901Z,17.00
2019-06-10T23:33:56.056Z,16.60
2019-06-10T23:36:23.594Z,17.65
2019-06-10T23:38:52.863Z,21.65
2019-06-10T23:41:23.340Z,19.65
2019-06-10T23:43:53.029Z,21.75
2019-06-10T23:46:22.736Z,21.57
2019-06-10T23:48:51.534Z,22.98
2019-06-10T23:51:22.646Z,21.30
2019-06-10T23:53:56.310Z,22.48
2019-06-10T23:56:22.264Z,28.30
2019-06-10T23:58:52.861Z,24.77
